sensor_id;sensor_type;location;lat;lon;timestamp;temperature;humidity
947;DHT22;460;48.734;9.152;2024-03-23T00:54:05;9.70;92.80
947;DHT22;460;48.734;9.152;2024-03-23T00:56:31;9.70;92.90
947;DHT22;460;48.734;9.152;2024-03-23T00:58:57;9.70;92.80
947;DHT22;460;48.734;9.152;2024-03-23T01:01:24;9.80;92.90
947;DHT22;460;48.734;9.152;2024-03-23T01:03:51;9.80;92.80
947;DHT22;460;48.734;9.152;2024-03-23T01:06:18;9.80;92.80
947;DHT22;460;48.734;9.152;2024-03-23T01:08:46;9.70;92.90
947;DHT22;460;48.734;9.152;2024-03-23T01:11:14;9.70;93.00
947;DHT22;460;48.734;9.152;2024-03-23T01:13:41;9.80;92.80
947;DHT22;460;48.734;9.152;2024-03-23T01:16:07;9.80;92.70
947;DHT22;460;48.734;9.152;2024-03-23T01:18:34;9.90;92.90
947;DHT22;460;48.734;9.152;2024-03-23T01:21:00;9.90;92.70
947;DHT22;460;48.734;9.152;2024-03-23T01:23:26;10.00;92.20
947;DHT22;460;48.734;9.152;2024-03-23T01:25:54;10.00;92.00
947;DHT22;460;48.734;9.152;2024-03-23T01:28:21;10.00;92.00
947;DHT22;460;48.734;9.152;2024-03-23T01:30:48;10.00;92.30
947;DHT22;460;48.734;9.152;2024-03-23T01:33:14;10.10;92.10
947;DHT22;460;48.734;9.152;2024-03-23T01:35:40;10.10;92.10
947;DHT22;460;48.734;9.152;2024-03-23T01:38:07;10.10;92.20
947;DHT22;460;48.734;9.152;2024-03-23T01:40:33;10.20;92.00
947;DHT22;460;48.734;9.152;2024-03-23T01:43:04;10.20;91.90
947;DHT22;460;48.734;9.152;2024-03-23T01:45:31;10.10;92.20
947;DHT22;460;48.734;9.152;2024-03-23T01:47:58;10.10;92.20
947;DHT22;460;48.734;9.152;2024-03-23T01:50:24;10.20;92.60
947;DHT22;460;48.734;9.152;2024-03-23T01:52:51;10.20;92.10
947;DHT22;460;48.734;9.152;2024-03-23T01:55:17;10.30;92.20
947;DHT22;460;48.734;9.152;2024-03-23T01:57:44;10.30;92.10
947;DHT22;460;48.734;9.152;2024-03-23T02:00:12;10.40;92.20
947;DHT22;460;48.734;9.152;2024-03-23T02:02:43;10.40;92.10
947;DHT22;460;48.734;9.152;2024-03-23T02:05:10;10.40;91.90
947;DHT22;460;48.734;9.152;2024-03-23T02:07:37;10.40;92.20
947;DHT22;460;48.734;9.152;2024-03-23T02:10:04;10.30;92.20
947;DHT22;460;48.734;9.152;2024-03-23T02:12:31;10.40;92.30
947;DHT22;460;48.734;9.152;2024-03-23T02:14:59;10.50;92.20
947;DHT22;460;48.734;9.152;2024-03-23T02:17:31;10.50;92.00
947;DHT22;460;48.734;9.152;2024-03-23T02:19:59;10.40;92.20
947;DHT22;460;48.734;9.152;2024-03-23T02:22:35;10.40;92.30
947;DHT22;460;48.734;9.152;2024-03-23T02:25:03;10.40;92.60
947;DHT22;460;48.734;9.152;2024-03-23T02:27:30;10.40;92.70
947;DHT22;460;48.734;9.152;2024-03-23T02:29:55;10.40;92.70
947;DHT22;460;48.734;9.152;2024-03-23T02:32:22;10.40;92.70
947;DHT22;460;48.734;9.152;2024-03-23T02:34:48;10.40;92.70
947;DHT22;460;48.734;9.152;2024-03-23T02:37:16;10.40;92.80
947;DHT22;460;48.734;9.152;2024-03-23T02:39:43;10.40;92.80
947;DHT22;460;48.734;9.152;2024-03-23T02:42:12;10.40;92.70
947;DHT22;460;48.734;9.152;2024-03-23T02:44:39;10.40;92.80
947;DHT22;460;48.734;9.152;2024-03-23T02:47:06;10.40;92.90
947;DHT22;460;48.734;9.152;2024-03-23T02:49:33;10.40;93.00
947;DHT22;460;48.734;9.152;2024-03-23T02:52:02;10.40;93.10
947;DHT22;460;48.734;9.152;2024-03-23T02:54:29;10.40;93.20
947;DHT22;460;48.734;9.152;2024-03-23T02:56:56;10.40;93.20
947;DHT22;460;48.734;9.152;2024-03-23T02:59:25;10.40;93.30
947;DHT22;460;48.734;9.152;2024-03-23T03:01:52;10.40;93.10
947;DHT22;460;48.734;9.152;2024-03-23T03:04:19;10.40;93.20
947;DHT22;460;48.734;9.152;2024-03-23T03:06:47;10.40;93.30
947;DHT22;460;48.734;9.152;2024-03-23T03:09:14;10.40;93.30
947;DHT22;460;48.734;9.152;2024-03-23T03:11:42;10.40;93.40
947;DHT22;460;48.734;9.152;2024-03-23T03:14:09;10.40;93.40
947;DHT22;460;48.734;9.152;2024-03-23T03:16:38;10.50;93.50
947;DHT22;460;48.734;9.152;2024-03-23T03:19:04;10.40;93.40
947;DHT22;460;48.734;9.152;2024-03-23T03:21:31;10.50;93.40
947;DHT22;460;48.734;9.152;2024-03-23T03:23:58;10.50;93.40
947;DHT22;460;48.734;9.152;2024-03-23T03:26:25;10.50;93.30
947;DHT22;460;48.734;9.152;2024-03-23T03:28:52;10.50;93.40
947;DHT22;460;48.734;9.152;2024-03-23T03:31:19;10.60;93.30
947;DHT22;460;48.734;9.152;2024-03-23T03:33:50;10.60;93.20
947;DHT22;460;48.734;9.152;2024-03-23T03:36:18;10.60;93.30
947;DHT22;460;48.734;9.152;2024-03-23T03:38:45;10.60;93.20
947;DHT22;460;48.734;9.152;2024-03-23T03:41:13;10.60;93.20
947;DHT22;460;48.734;9.152;2024-03-23T03:43:42;10.50;93.30
947;DHT22;460;48.734;9.152;2024-03-23T03:46:10;10.40;93.50
947;DHT22;460;48.734;9.152;2024-03-23T03:48:36;10.40;93.60
947;DHT22;460;48.734;9.152;2024-03-23T03:51:05;10.30;93.60
947;DHT22;460;48.734;9.152;2024-03-23T03:53:31;10.30;93.80
947;DHT22;460;48.734;9.152;2024-03-23T03:56:00;10.20;94.00
947;DHT22;460;48.734;9.152;2024-03-23T03:58:26;10.30;94.00
947;DHT22;460;48.734;9.152;2024-03-23T04:00:53;10.20;93.90
947;DHT22;460;48.734;9.152;2024-03-23T04:03:19;10.10;94.10
947;DHT22;460;48.734;9.152;2024-03-23T04:05:50;10.10;94.30
947;DHT22;460;48.734;9.152;2024-03-23T04:08:18;10.00;94.40
947;DHT22;460;48.734;9.152;2024-03-23T04:10:45;10.00;94.40
947;DHT22;460;48.734;9.152;2024-03-23T04:13:11;9.90;95.20
947;DHT22;460;48.734;9.152;2024-03-23T04:15:38;10.00;94.70
947;DHT22;460;48.734;9.152;2024-03-23T04:18:04;10.00;94.60
947;DHT22;460;48.734;9.152;2024-03-23T04:20:31;9.90;95.20
947;DHT22;460;48.734;9.152;2024-03-23T04:22:57;9.90;95.40
947;DHT22;460;48.734;9.152;2024-03-23T04:25:26;9.90;95.50
947;DHT22;460;48.734;9.152;2024-03-23T04:27:51;9.90;95.50
947;DHT22;460;48.734;9.152;2024-03-23T04:30:18;9.90;95.70
947;DHT22;460;48.734;9.152;2024-03-23T04:32:45;9.90;95.50
947;DHT22;460;48.734;9.152;2024-03-23T04:35:11;9.80;95.70
947;DHT22;460;48.734;9.152;2024-03-23T04:37:39;9.70;95.80
947;DHT22;460;48.734;9.152;2024-03-23T04:40:07;9.70;96.10
947;DHT22;460;48.734;9.152;2024-03-23T04:42:35;9.60;96.20
947;DHT22;460;48.734;9.152;2024-03-23T04:45:03;9.50;96.70
947;DHT22;460;48.734;9.152;2024-03-23T04:47:31;9.50;97.10
947;DHT22;460;48.734;9.152;2024-03-23T04:49:58;9.60;97.40
947;DHT22;460;48.734;9.152;2024-03-23T04:52:26;9.70;97.60
947;DHT22;460;48.734;9.152;2024-03-23T04:54:53;9.80;97.90
947;DHT22;460;48.734;9.152;2024-03-23T04:57:19;9.80;98.20
947;DHT22;460;48.734;9.152;2024-03-23T04:59:47;9.90;99.20
947;DHT22;460;48.734;9.152;2024-03-23T05:02:13;10.00;99.90
947;DHT22;460;48.734;9.152;2024-03-23T05:04:40;9.90;99.90
947;DHT22;460;48.734;9.152;2024-03-23T05:07:06;9.80;99.90
947;DHT22;460;48.734;9.152;2024-03-23T05:09:33;9.70;99.90
947;DHT22;460;48.734;9.152;2024-03-23T05:11:59;9.60;99.90
947;DHT22;460;48.734;9.152;2024-03-23T05:14:26;9.60;99.90
947;DHT22;460;48.734;9.152;2024-03-23T05:16:54;9.50;99.90
947;DHT22;460;48.734;9.152;2024-03-23T05:19:21;9.50;99.90
947;DHT22;460;48.734;9.152;2024-03-23T05:21:47;9.40;99.90
947;DHT22;460;48.734;9.152;2024-03-23T05:24:14;9.40;99.90
947;DHT22;460;48.734;9.152;2024-03-23T05:26:40;9.40;99.90
947;DHT22;460;48.734;9.152;2024-03-23T05:29:07;9.30;99.90
947;DHT22;460;48.734;9.152;2024-03-23T05:31:36;9.30;99.90
947;DHT22;460;48.734;9.152;2024-03-23T05:34:04;9.20;99.90
947;DHT22;460;48.734;9.152;2024-03-23T05:36:30;9.20;99.90
947;DHT22;460;48.734;9.152;2024-03-23T05:38:58;9.20;99.90
947;DHT22;460;48.734;9.152;2024-03-23T05:41:23;9.10;99.90
947;DHT22;460;48.734;9.152;2024-03-23T05:43:50;9.10;99.90
947;DHT22;460;48.734;9.152;2024-03-23T05:46:16;9.10;99.90
947;DHT22;460;48.734;9.152;2024-03-23T05:48:43;9.10;99.90
947;DHT22;460;48.734;9.152;2024-03-23T05:51:10;9.10;99.90
947;DHT22;460;48.734;9.152;2024-03-23T05:53:38;9.00;99.90
947;DHT22;460;48.734;9.152;2024-03-23T05:56:04;9.00;99.90
947;DHT22;460;48.734;9.152;2024-03-23T05:58:31;8.90;99.90
947;DHT22;460;48.734;9.152;2024-03-23T06:00:58;8.90;99.90
947;DHT22;460;48.734;9.152;2024-03-23T06:03:25;8.80;99.90
947;DHT22;460;48.734;9.152;2024-03-23T06:05:51;8.80;99.90
947;DHT22;460;48.734;9.152;2024-03-23T06:08:20;8.60;99.90
947;DHT22;460;48.734;9.152;2024-03-23T06:10:46;8.70;99.90
947;DHT22;460;48.734;9.152;2024-03-23T06:13:13;8.60;99.90
947;DHT22;460;48.734;9.152;2024-03-23T06:15:39;8.50;99.90
947;DHT22;460;48.734;9.152;2024-03-23T06:18:06;8.50;99.90
947;DHT22;460;48.734;9.152;2024-03-23T06:20:33;8.40;99.90
947;DHT22;460;48.734;9.152;2024-03-23T06:23:00;8.40;99.90
947;DHT22;460;48.734;9.152;2024-03-23T06:25:27;8.30;99.90
947;DHT22;460;48.734;9.152;2024-03-23T06:27:54;8.20;99.90
947;DHT22;460;48.734;9.152;2024-03-23T06:30:20;8.10;99.90
947;DHT22;460;48.734;9.152;2024-03-23T06:32:47;8.10;99.90
947;DHT22;460;48.734;9.152;2024-03-23T06:35:13;8.10;99.90
947;DHT22;460;48.734;9.152;2024-03-23T06:37:40;8.00;99.90
947;DHT22;460;48.734;9.152;2024-03-23T06:40:07;8.00;99.90
947;DHT22;460;48.734;9.152;2024-03-23T06:42:36;7.90;99.90
947;DHT22;460;48.734;9.152;2024-03-23T06:45:03;7.90;99.90
947;DHT22;460;48.734;9.152;2024-03-23T06:47:30;7.90;99.90
947;DHT22;460;48.734;9.152;2024-03-23T06:49:56;7.90;99.90
947;DHT22;460;48.734;9.152;2024-03-23T06:52:22;7.90;99.90
947;DHT22;460;48.734;9.152;2024-03-23T06:54:48;7.90;99.90
947;DHT22;460;48.734;9.152;2024-03-23T06:57:15;7.90;99.90
947;DHT22;460;48.734;9.152;2024-03-23T06:59:42;7.90;99.90
947;DHT22;460;48.734;9.152;2024-03-23T07:02:09;7.90;99.90
947;DHT22;460;48.734;9.152;2024-03-23T07:04:35;8.00;99.90
947;DHT22;460;48.734;9.152;2024-03-23T07:07:02;7.90;99.90
947;DHT22;460;48.734;9.152;2024-03-23T07:09:28;7.90;99.90
947;DHT22;460;48.734;9.152;2024-03-23T07:11:56;8.00;99.90
947;DHT22;460;48.734;9.152;2024-03-23T07:14:22;8.00;99.90
947;DHT22;460;48.734;9.152;2024-03-23T07:16:53;8.00;99.90
947;DHT22;460;48.734;9.152;2024-03-23T07:19:19;8.00;99.90
947;DHT22;460;48.734;9.152;2024-03-23T07:21:45;8.00;99.90
947;DHT22;460;48.734;9.152;2024-03-23T07:24:12;8.00;99.90
947;DHT22;460;48.734;9.152;2024-03-23T07:26:38;8.00;99.90
947;DHT22;460;48.734;9.152;2024-03-23T07:29:05;8.00;99.90
947;DHT22;460;48.734;9.152;2024-03-23T07:31:32;8.00;99.90
947;DHT22;460;48.734;9.152;2024-03-23T07:33:59;8.10;99.90
947;DHT22;460;48.734;9.152;2024-03-23T07:36:26;8.10;99.90
947;DHT22;460;48.734;9.152;2024-03-23T07:38:51;8.00;99.90
947;DHT22;460;48.734;9.152;2024-03-23T07:41:20;8.20;99.90
947;DHT22;460;48.734;9.152;2024-03-23T07:43:46;8.10;99.90
947;DHT22;460;48.734;9.152;2024-03-23T07:46:15;8.00;99.90
947;DHT22;460;48.734;9.152;2024-03-23T07:48:41;8.00;99.90
947;DHT22;460;48.734;9.152;2024-03-23T07:51:16;8.00;99.90
947;DHT22;460;48.734;9.152;2024-03-23T07:53:43;8.00;99.90
947;DHT22;460;48.734;9.152;2024-03-23T07:56:11;8.00;99.90
947;DHT22;460;48.734;9.152;2024-03-23T07:58:38;8.00;99.90
947;DHT22;460;48.734;9.152;2024-03-23T08:01:06;8.00;99.90
947;DHT22;460;48.734;9.152;2024-03-23T08:03:33;8.00;99.90
947;DHT22;460;48.734;9.152;2024-03-23T08:06:07;7.90;99.90
947;DHT22;460;48.734;9.152;2024-03-23T08:08:34;7.90;99.90
947;DHT22;460;48.734;9.152;2024-03-23T08:11:01;7.90;99.90
947;DHT22;460;48.734;9.152;2024-03-23T08:13:28;7.80;99.90
947;DHT22;460;48.734;9.152;2024-03-23T08:15:56;7.70;99.90
947;DHT22;460;48.734;9.152;2024-03-23T08:18:22;7.60;99.90
947;DHT22;460;48.734;9.152;2024-03-23T08:20:55;7.60;99.90
947;DHT22;460;48.734;9.152;2024-03-23T08:23:21;7.60;99.90
947;DHT22;460;48.734;9.152;2024-03-23T08:25:49;7.60;99.90
947;DHT22;460;48.734;9.152;2024-03-23T08:28:15;7.60;99.90
947;DHT22;460;48.734;9.152;2024-03-23T08:30:42;7.60;99.90
947;DHT22;460;48.734;9.152;2024-03-23T08:33:08;7.60;99.90
947;DHT22;460;48.734;9.152;2024-03-23T08:35:35;7.60;99.90
947;DHT22;460;48.734;9.152;2024-03-23T08:38:01;7.70;99.90
947;DHT22;460;48.734;9.152;2024-03-23T08:40:28;7.70;99.90
947;DHT22;460;48.734;9.152;2024-03-23T08:42:55;7.80;99.90
947;DHT22;460;48.734;9.152;2024-03-23T08:45:22;8.00;99.90
947;DHT22;460;48.734;9.152;2024-03-23T08:47:48;8.20;99.90
947;DHT22;460;48.734;9.152;2024-03-23T08:50:14;8.10;99.90
947;DHT22;460;48.734;9.152;2024-03-23T08:52:40;8.20;99.90
947;DHT22;460;48.734;9.152;2024-03-23T08:55:08;8.10;99.90
947;DHT22;460;48.734;9.152;2024-03-23T08:57:35;8.10;99.90
947;DHT22;460;48.734;9.152;2024-03-23T09:00:04;8.20;99.90
947;DHT22;460;48.734;9.152;2024-03-23T09:02:31;8.30;99.90
947;DHT22;460;48.734;9.152;2024-03-23T09:04:59;8.20;99.90
947;DHT22;460;48.734;9.152;2024-03-23T09:07:30;8.20;99.90
947;DHT22;460;48.734;9.152;2024-03-23T09:09:56;8.00;99.40
947;DHT22;460;48.734;9.152;2024-03-23T09:12:22;8.00;99.30
947;DHT22;460;48.734;9.152;2024-03-23T09:14:49;7.90;99.40
947;DHT22;460;48.734;9.152;2024-03-23T09:17:16;7.90;99.90
947;DHT22;460;48.734;9.152;2024-03-23T09:19:44;8.00;99.70
947;DHT22;460;48.734;9.152;2024-03-23T09:22:09;7.90;98.30
947;DHT22;460;48.734;9.152;2024-03-23T09:24:36;7.90;97.90
947;DHT22;460;48.734;9.152;2024-03-23T09:27:02;8.00;98.70
947;DHT22;460;48.734;9.152;2024-03-23T09:29:29;8.00;98.10
947;DHT22;460;48.734;9.152;2024-03-23T09:31:55;7.90;96.70
947;DHT22;460;48.734;9.152;2024-03-23T09:34:23;7.90;96.40
947;DHT22;460;48.734;9.152;2024-03-23T09:36:51;8.00;97.00
947;DHT22;460;48.734;9.152;2024-03-23T09:39:18;8.10;97.30
947;DHT22;460;48.734;9.152;2024-03-23T09:41:44;8.20;95.20
947;DHT22;460;48.734;9.152;2024-03-23T09:44:11;8.40;95.10
947;DHT22;460;48.734;9.152;2024-03-23T09:46:38;8.40;93.90
947;DHT22;460;48.734;9.152;2024-03-23T09:49:05;8.40;92.80
947;DHT22;460;48.734;9.152;2024-03-23T09:51:36;8.40;93.60
947;DHT22;460;48.734;9.152;2024-03-23T09:54:03;8.40;93.30
947;DHT22;460;48.734;9.152;2024-03-23T09:56:28;8.30;92.40
947;DHT22;460;48.734;9.152;2024-03-23T09:59:00;8.20;92.10
947;DHT22;460;48.734;9.152;2024-03-23T10:01:26;8.00;92.80
947;DHT22;460;48.734;9.152;2024-03-23T10:03:53;8.00;93.10
947;DHT22;460;48.734;9.152;2024-03-23T10:06:22;8.10;93.90
947;DHT22;460;48.734;9.152;2024-03-23T10:08:51;8.20;93.60
947;DHT22;460;48.734;9.152;2024-03-23T10:11:19;8.20;93.50
947;DHT22;460;48.734;9.152;2024-03-23T10:13:46;8.10;94.10
947;DHT22;460;48.734;9.152;2024-03-23T10:16:21;8.10;94.10
947;DHT22;460;48.734;9.152;2024-03-23T10:18:48;8.20;93.80
947;DHT22;460;48.734;9.152;2024-03-23T10:21:15;8.20;93.00
947;DHT22;460;48.734;9.152;2024-03-23T10:23:43;8.20;92.00
947;DHT22;460;48.734;9.152;2024-03-23T10:26:18;8.30;91.30
947;DHT22;460;48.734;9.152;2024-03-23T10:28:54;8.30;91.20
947;DHT22;460;48.734;9.152;2024-03-23T10:31:20;8.50;91.40
947;DHT22;460;48.734;9.152;2024-03-23T10:33:48;8.60;90.60
947;DHT22;460;48.734;9.152;2024-03-23T10:36:14;8.80;89.50
947;DHT22;460;48.734;9.152;2024-03-23T10:38:42;8.70;87.80
947;DHT22;460;48.734;9.152;2024-03-23T10:41:09;8.70;89.90
947;DHT22;460;48.734;9.152;2024-03-23T10:43:37;8.80;90.20
947;DHT22;460;48.734;9.152;2024-03-23T10:46:04;8.80;89.70
947;DHT22;460;48.734;9.152;2024-03-23T10:48:32;8.90;90.00
947;DHT22;460;48.734;9.152;2024-03-23T10:50:58;8.80;88.80
947;DHT22;460;48.734;9.152;2024-03-23T10:53:26;8.80;89.60
947;DHT22;460;48.734;9.152;2024-03-23T10:55:54;8.60;90.60
947;DHT22;460;48.734;9.152;2024-03-23T10:58:24;8.10;91.90
947;DHT22;460;48.734;9.152;2024-03-23T11:00:53;7.40;95.10
947;DHT22;460;48.734;9.152;2024-03-23T11:03:30;6.70;98.30
947;DHT22;460;48.734;9.152;2024-03-23T11:05:56;6.00;99.90
947;DHT22;460;48.734;9.152;2024-03-23T11:08:37;5.60;99.90
947;DHT22;460;48.734;9.152;2024-03-23T11:11:17;5.20;99.90
947;DHT22;460;48.734;9.152;2024-03-23T11:13:44;5.20;99.90
947;DHT22;460;48.734;9.152;2024-03-23T11:16:16;5.40;99.90
947;DHT22;460;48.734;9.152;2024-03-23T11:18:43;5.50;99.90
947;DHT22;460;48.734;9.152;2024-03-23T11:21:11;5.60;99.90
947;DHT22;460;48.734;9.152;2024-03-23T11:24:14;5.70;99.90
947;DHT22;460;48.734;9.152;2024-03-23T11:26:41;5.90;99.90
947;DHT22;460;48.734;9.152;2024-03-23T11:29:10;6.00;99.90
947;DHT22;460;48.734;9.152;2024-03-23T11:31:39;6.30;99.90
947;DHT22;460;48.734;9.152;2024-03-23T11:34:11;6.50;99.90
947;DHT22;460;48.734;9.152;2024-03-23T11:36:38;6.60;99.90
947;DHT22;460;48.734;9.152;2024-03-23T11:39:12;6.60;99.90
947;DHT22;460;48.734;9.152;2024-03-23T11:41:46;6.70;99.90
947;DHT22;460;48.734;9.152;2024-03-23T11:44:15;6.80;99.90
947;DHT22;460;48.734;9.152;2024-03-23T11:46:43;6.90;99.90
947;DHT22;460;48.734;9.152;2024-03-23T11:49:20;6.90;99.90
947;DHT22;460;48.734;9.152;2024-03-23T11:51:49;7.20;99.90
947;DHT22;460;48.734;9.152;2024-03-23T11:54:14;7.30;99.90
947;DHT22;460;48.734;9.152;2024-03-23T11:56:54;7.30;99.90
947;DHT22;460;48.734;9.152;2024-03-23T11:59:30;7.40;99.50
947;DHT22;460;48.734;9.152;2024-03-23T12:01:59;7.50;99.30
947;DHT22;460;48.734;9.152;2024-03-23T12:04:26;7.60;98.80
947;DHT22;460;48.734;9.152;2024-03-23T12:07:11;7.80;99.60
947;DHT22;460;48.734;9.152;2024-03-23T12:09:37;7.90;97.90
947;DHT22;460;48.734;9.152;2024-03-23T12:12:11;7.90;96.10
947;DHT22;460;48.734;9.152;2024-03-23T12:14:40;8.10;96.10
947;DHT22;460;48.734;9.152;2024-03-23T12:17:12;8.30;96.80
947;DHT22;460;48.734;9.152;2024-03-23T12:19:39;8.40;94.60
947;DHT22;460;48.734;9.152;2024-03-23T12:22:07;8.20;94.30
947;DHT22;460;48.734;9.152;2024-03-23T12:24:34;8.10;94.10
947;DHT22;460;48.734;9.152;2024-03-23T12:27:02;8.10;93.70
947;DHT22;460;48.734;9.152;2024-03-23T12:29:29;8.10;94.50
947;DHT22;460;48.734;9.152;2024-03-23T12:31:58;8.00;94.10
947;DHT22;460;48.734;9.152;2024-03-23T12:34:26;8.00;94.00
947;DHT22;460;48.734;9.152;2024-03-23T12:36:52;8.00;92.90
947;DHT22;460;48.734;9.152;2024-03-23T12:39:18;8.20;92.80
947;DHT22;460;48.734;9.152;2024-03-23T12:41:46;8.10;92.50
947;DHT22;460;48.734;9.152;2024-03-23T12:44:12;8.10;92.20
947;DHT22;460;48.734;9.152;2024-03-23T12:46:39;8.10;92.90
947;DHT22;460;48.734;9.152;2024-03-23T12:49:05;8.00;92.40
947;DHT22;460;48.734;9.152;2024-03-23T12:51:33;8.00;92.00
947;DHT22;460;48.734;9.152;2024-03-23T12:53:59;7.90;91.40
947;DHT22;460;48.734;9.152;2024-03-23T12:56:26;8.00;91.40
947;DHT22;460;48.734;9.152;2024-03-23T12:58:53;7.80;92.80
947;DHT22;460;48.734;9.152;2024-03-23T13:01:22;7.90;92.10
947;DHT22;460;48.734;9.152;2024-03-23T13:03:48;7.90;92.10
947;DHT22;460;48.734;9.152;2024-03-23T13:06:15;8.20;92.90
947;DHT22;460;48.734;9.152;2024-03-23T13:08:44;8.30;92.40
947;DHT22;460;48.734;9.152;2024-03-23T13:11:11;8.40;92.80
947;DHT22;460;48.734;9.152;2024-03-23T13:13:37;8.40;91.60
947;DHT22;460;48.734;9.152;2024-03-23T13:16:04;8.30;91.80
947;DHT22;460;48.734;9.152;2024-03-23T13:18:31;8.30;91.70
947;DHT22;460;48.734;9.152;2024-03-23T13:20:59;8.60;92.80
947;DHT22;460;48.734;9.152;2024-03-23T13:23:25;9.00;93.50
947;DHT22;460;48.734;9.152;2024-03-23T13:25:54;9.20;92.60
947;DHT22;460;48.734;9.152;2024-03-23T13:28:20;9.20;91.80
947;DHT22;460;48.734;9.152;2024-03-23T13:30:51;9.20;92.20
947;DHT22;460;48.734;9.152;2024-03-23T13:33:17;9.10;87.90
947;DHT22;460;48.734;9.152;2024-03-23T13:35:49;8.70;82.20
947;DHT22;460;48.734;9.152;2024-03-23T13:38:15;8.70;85.00
947;DHT22;460;48.734;9.152;2024-03-23T13:40:50;8.70;82.80
947;DHT22;460;48.734;9.152;2024-03-23T13:43:17;8.90;82.80
947;DHT22;460;48.734;9.152;2024-03-23T13:45:44;9.10;78.90
947;DHT22;460;48.734;9.152;2024-03-23T13:48:11;9.10;75.70
947;DHT22;460;48.734;9.152;2024-03-23T13:50:37;9.10;74.50
947;DHT22;460;48.734;9.152;2024-03-23T13:53:04;9.20;77.40
947;DHT22;460;48.734;9.152;2024-03-23T13:55:30;9.40;81.70
947;DHT22;460;48.734;9.152;2024-03-23T13:57:57;9.50;82.40
947;DHT22;460;48.734;9.152;2024-03-23T14:00:24;9.40;80.50
947;DHT22;460;48.734;9.152;2024-03-23T14:02:51;9.40;80.60
947;DHT22;460;48.734;9.152;2024-03-23T14:05:17;9.50;81.80
947;DHT22;460;48.734;9.152;2024-03-23T14:07:43;9.50;82.90
947;DHT22;460;48.734;9.152;2024-03-23T14:10:10;9.30;82.90
947;DHT22;460;48.734;9.152;2024-03-23T14:12:37;9.20;83.90
947;DHT22;460;48.734;9.152;2024-03-23T14:15:05;8.90;86.30
947;DHT22;460;48.734;9.152;2024-03-23T14:17:33;8.70;88.20
947;DHT22;460;48.734;9.152;2024-03-23T14:19:59;8.40;90.70
947;DHT22;460;48.734;9.152;2024-03-23T14:22:26;7.90;93.70
947;DHT22;460;48.734;9.152;2024-03-23T14:24:52;8.60;94.80
947;DHT22;460;48.734;9.152;2024-03-23T14:27:19;9.20;94.70
947;DHT22;460;48.734;9.152;2024-03-23T14:29:46;9.00;93.30
947;DHT22;460;48.734;9.152;2024-03-23T14:32:13;8.80;93.70
947;DHT22;460;48.734;9.152;2024-03-23T14:34:40;8.60;93.40
947;DHT22;460;48.734;9.152;2024-03-23T14:37:07;8.30;93.50
947;DHT22;460;48.734;9.152;2024-03-23T14:39:33;8.50;94.40
947;DHT22;460;48.734;9.152;2024-03-23T14:42:00;8.80;95.00
947;DHT22;460;48.734;9.152;2024-03-23T14:44:26;8.90;93.80
947;DHT22;460;48.734;9.152;2024-03-23T14:46:53;9.40;93.50
947;DHT22;460;48.734;9.152;2024-03-23T14:49:20;10.30;93.00
947;DHT22;460;48.734;9.152;2024-03-23T14:51:50;11.40;90.60
947;DHT22;460;48.734;9.152;2024-03-23T14:54:15;11.00;87.50
947;DHT22;460;48.734;9.152;2024-03-23T14:56:42;10.20;88.20
947;DHT22;460;48.734;9.152;2024-03-23T14:59:08;9.30;89.00
947;DHT22;460;48.734;9.152;2024-03-23T15:01:35;8.90;90.00
947;DHT22;460;48.734;9.152;2024-03-23T15:04:01;8.40;91.00
947;DHT22;460;48.734;9.152;2024-03-23T15:06:29;7.60;92.00
947;DHT22;460;48.734;9.152;2024-03-23T15:08:56;7.00;94.90
947;DHT22;460;48.734;9.152;2024-03-23T15:11:23;6.60;97.50
947;DHT22;460;48.734;9.152;2024-03-23T15:13:50;6.50;99.10
947;DHT22;460;48.734;9.152;2024-03-23T15:16:17;6.30;99.90
947;DHT22;460;48.734;9.152;2024-03-23T15:18:45;6.90;99.90
947;DHT22;460;48.734;9.152;2024-03-23T15:21:12;7.80;99.90
947;DHT22;460;48.734;9.152;2024-03-23T15:23:39;8.30;99.90
947;DHT22;460;48.734;9.152;2024-03-23T15:26:10;8.60;99.60
947;DHT22;460;48.734;9.152;2024-03-23T15:28:36;9.10;97.80
947;DHT22;460;48.734;9.152;2024-03-23T15:31:08;9.10;97.70
947;DHT22;460;48.734;9.152;2024-03-23T15:33:44;9.40;97.80
947;DHT22;460;48.734;9.152;2024-03-23T15:36:11;9.40;96.90
947;DHT22;460;48.734;9.152;2024-03-23T15:38:37;9.00;95.80
947;DHT22;460;48.734;9.152;2024-03-23T15:41:04;8.50;95.60
947;DHT22;460;48.734;9.152;2024-03-23T15:43:30;8.70;97.10
947;DHT22;460;48.734;9.152;2024-03-23T15:45:58;8.70;95.30
947;DHT22;460;48.734;9.152;2024-03-23T15:48:25;8.80;95.10
947;DHT22;460;48.734;9.152;2024-03-23T15:50:54;9.40;95.20
947;DHT22;460;48.734;9.152;2024-03-23T15:53:20;9.00;93.70
947;DHT22;460;48.734;9.152;2024-03-23T15:55:53;8.40;93.10
947;DHT22;460;48.734;9.152;2024-03-23T15:58:19;7.70;92.70
947;DHT22;460;48.734;9.152;2024-03-23T16:00:46;7.70;94.90
947;DHT22;460;48.734;9.152;2024-03-23T16:03:12;7.40;94.70
947;DHT22;460;48.734;9.152;2024-03-23T16:05:38;7.30;94.40
947;DHT22;460;48.734;9.152;2024-03-23T16:08:11;7.90;96.30
947;DHT22;460;48.734;9.152;2024-03-23T16:10:39;8.60;93.60
947;DHT22;460;48.734;9.152;2024-03-23T16:13:05;8.50;92.40
947;DHT22;460;48.734;9.152;2024-03-23T16:15:32;8.20;92.60
947;DHT22;460;48.734;9.152;2024-03-23T16:17:58;7.80;92.70
947;DHT22;460;48.734;9.152;2024-03-23T16:20:24;7.40;92.50
947;DHT22;460;48.734;9.152;2024-03-23T16:22:50;7.40;93.60
947;DHT22;460;48.734;9.152;2024-03-23T16:25:18;7.40;94.30
947;DHT22;460;48.734;9.152;2024-03-23T16:27:44;7.10;93.80
947;DHT22;460;48.734;9.152;2024-03-23T16:30:12;7.00;93.00
947;DHT22;460;48.734;9.152;2024-03-23T16:32:38;6.90;92.50
947;DHT22;460;48.734;9.152;2024-03-23T16:35:05;6.80;93.50
947;DHT22;460;48.734;9.152;2024-03-23T16:37:35;6.60;93.80
947;DHT22;460;48.734;9.152;2024-03-23T16:40:01;6.70;93.60
947;DHT22;460;48.734;9.152;2024-03-23T16:42:29;6.80;93.60
947;DHT22;460;48.734;9.152;2024-03-23T16:44:55;6.70;93.80
947;DHT22;460;48.734;9.152;2024-03-23T16:47:21;6.70;94.90
947;DHT22;460;48.734;9.152;2024-03-23T16:49:48;6.30;95.70
947;DHT22;460;48.734;9.152;2024-03-23T16:52:14;6.30;97.00
947;DHT22;460;48.734;9.152;2024-03-23T16:54:41;6.20;97.50
947;DHT22;460;48.734;9.152;2024-03-23T16:57:07;6.20;98.30
947;DHT22;460;48.734;9.152;2024-03-23T16:59:35;6.20;98.10
947;DHT22;460;48.734;9.152;2024-03-23T17:02:01;6.30;98.00
947;DHT22;460;48.734;9.152;2024-03-23T17:04:28;6.10;98.00
947;DHT22;460;48.734;9.152;2024-03-23T17:06:54;6.10;97.90
947;DHT22;460;48.734;9.152;2024-03-23T17:09:21;6.10;97.80
947;DHT22;460;48.734;9.152;2024-03-23T17:11:47;6.20;97.70
947;DHT22;460;48.734;9.152;2024-03-23T17:14:15;6.10;96.80
947;DHT22;460;48.734;9.152;2024-03-23T17:16:42;6.00;97.50
947;DHT22;460;48.734;9.152;2024-03-23T17:19:10;6.00;97.70
947;DHT22;460;48.734;9.152;2024-03-23T17:21:36;5.90;97.70
947;DHT22;460;48.734;9.152;2024-03-23T17:24:06;5.90;97.30
947;DHT22;460;48.734;9.152;2024-03-23T17:26:34;5.80;97.60
947;DHT22;460;48.734;9.152;2024-03-23T17:29:01;5.90;98.30
947;DHT22;460;48.734;9.152;2024-03-23T17:31:27;5.90;97.90
947;DHT22;460;48.734;9.152;2024-03-23T17:33:55;5.90;97.70
947;DHT22;460;48.734;9.152;2024-03-23T17:36:21;5.90;97.80
947;DHT22;460;48.734;9.152;2024-03-23T17:38:53;5.90;97.60
947;DHT22;460;48.734;9.152;2024-03-23T17:41:19;5.90;97.70
947;DHT22;460;48.734;9.152;2024-03-23T17:43:46;5.90;97.90